createdAt,value
2022-11-28T00:02:24.497Z,10.40
2022-11-28T00:04:52.193Z,8.80
2022-11-28T00:07:19.671Z,10.98
2022-11-28T00:09:46.580Z,11.90
2022-11-28T00:12:13.521Z,9.43
2022-11-28T00:14:40.506Z,8.60
2022-11-28T00:17:07.640Z,8.38
2022-11-28T00:19:34.478Z,6.35
2022-11-28T00:22:02.298Z,7.53
2022-11-28T00:24:29.008Z,7.10
2022-11-28T00:26:55.878Z,7.10
2022-11-28T00:29:22.490Z,6.25
2022-11-28T00:31:49.656Z,5.75
2022-11-28T00:34:16.448Z,7.25
2022-11-28T00:36:45.855Z,8.03
2022-11-28T00:39:13.346Z,8.02
2022-11-28T00:41:40.508Z,8.07
2022-11-28T00:44:07.699Z,8.43
2022-11-28T00:46:34.905Z,11.00
2022-11-28T00:49:01.657Z,9.93
2022-11-28T00:51:31.887Z,9.63
2022-11-28T00:54:00.397Z,8.63
2022-11-28T00:56:31.352Z,8.25
2022-11-28T00:58:58.490Z,8.43
2022-11-28T01:01:28.682Z,8.77
2022-11-28T01:03:57.381Z,8.60
2022-11-28T01:06:27.389Z,8.05
2022-11-28T01:08:54.743Z,9.02
2022-11-28T01:11:22.327Z,7.95
2022-11-28T01:13:49.600Z,10.73
2022-11-28T01:16:17.515Z,11.55
2022-11-28T01:18:44.213Z,10.93
2022-11-28T01:21:11.271Z,11.30
2022-11-28T01:23:37.999Z,11.18
2022-11-28T01:26:06.885Z,10.40
2022-11-28T01:28:34.684Z,10.85
2022-11-28T01:31:10.490Z,10.02
2022-11-28T01:33:37.529Z,11.52
2022-11-28T01:36:04.971Z,11.30
2022-11-28T01:38:31.865Z,9.23
2022-11-28T01:40:59.322Z,7.90
2022-11-28T01:43:26.256Z,9.98
2022-11-28T01:45:54.035Z,7.68
2022-11-28T01:48:37.707Z,6.88
2022-11-28T01:51:09.075Z,6.17
2022-11-28T01:53:40.264Z,7.65
2022-11-28T01:56:17.359Z,8.65
2022-11-28T01:58:48.909Z,6.85
2022-11-28T02:01:16.909Z,6.47
2022-11-28T02:03:46.014Z,6.17
2022-11-28T02:06:17.160Z,6.30
2022-11-28T02:08:44.003Z,6.55
2022-11-28T02:11:26.239Z,5.47
2022-11-28T02:14:14.645Z,5.22
2022-11-28T02:16:56.646Z,5.47
2022-11-28T02:19:44.547Z,10.27
2022-11-28T02:22:14.203Z,9.48
2022-11-28T02:25:02.703Z,9.57
2022-11-28T02:27:57.820Z,8.43
2022-11-28T02:30:33.404Z,7.70
2022-11-28T02:33:26.727Z,7.85
2022-11-28T02:36:10.734Z,7.63
2022-11-28T02:38:51.843Z,7.30
2022-11-28T02:41:35.048Z,6.35
2022-11-28T02:44:16.454Z,6.50
2022-11-28T02:47:05.806Z,7.13
2022-11-28T02:49:46.973Z,8.85
2022-11-28T02:52:18.800Z,7.63
2022-11-28T02:54:46.527Z,7.53
2022-11-28T02:57:13.241Z,7.83
2022-11-28T02:59:42.980Z,7.63
2022-11-28T03:02:30.468Z,6.63
2022-11-28T03:05:15.782Z,7.32
2022-11-28T03:08:10.548Z,7.40
2022-11-28T03:11:07.861Z,7.93
2022-11-28T03:13:40.322Z,10.45
2022-11-28T03:16:17.622Z,8.88
2022-11-28T03:18:50.099Z,9.32
2022-11-28T03:21:25.932Z,6.65
2022-11-28T03:24:01.120Z,6.23
2022-11-28T03:26:56.359Z,7.05
2022-11-28T03:29:38.082Z,6.80
2022-11-28T03:32:20.402Z,9.88
2022-11-28T03:34:51.020Z,9.10
2022-11-28T03:37:23.069Z,6.90
2022-11-28T03:39:54.994Z,10.38
2022-11-28T03:42:24.712Z,9.70
2022-11-28T03:45:01.390Z,7.22
2022-11-28T03:47:34.377Z,9.98
2022-11-28T03:50:06.536Z,9.73
2022-11-28T03:52:40.463Z,10.52
2022-11-28T03:55:32.712Z,11.30
2022-11-28T03:58:16.439Z,9.85
2022-11-28T04:00:59.690Z,9.18
2022-11-28T04:03:45.170Z,8.73
2022-11-28T04:06:23.045Z,8.38
2022-11-28T04:09:02.583Z,6.40
2022-11-28T04:11:42.775Z,5.95
2022-11-28T04:14:23.007Z,5.47
2022-11-28T04:17:05.551Z,6.93
2022-11-28T04:19:43.757Z,6.53
2022-11-28T04:22:16.009Z,6.25
2022-11-28T04:24:48.665Z,6.35
2022-11-28T04:27:19.696Z,7.07
2022-11-28T04:29:52.605Z,8.93
2022-11-28T04:32:21.312Z,7.55
2022-11-28T04:34:55.464Z,6.10
2022-11-28T04:37:24.884Z,6.20
2022-11-28T04:39:54.586Z,6.03
2022-11-28T04:42:26.368Z,5.53
2022-11-28T04:44:58.314Z,6.22
2022-11-28T04:47:25.773Z,8.75
2022-11-28T04:49:53.825Z,7.60
2022-11-28T04:52:35.330Z,7.68
2022-11-28T04:55:19.238Z,8.87
2022-11-28T04:57:57.109Z,6.97
2022-11-28T05:00:26.210Z,7.28
2022-11-28T05:02:54.831Z,9.10
2022-11-28T05:05:25.153Z,8.40
2022-11-28T05:07:52.659Z,9.00
2022-11-28T05:10:19.977Z,7.10
2022-11-28T05:12:46.701Z,6.03
2022-11-28T05:15:18.861Z,6.32
2022-11-28T05:17:46.846Z,5.78
2022-11-28T05:20:14.537Z,6.70
2022-11-28T05:22:41.600Z,6.60
2022-11-28T05:25:08.916Z,6.20
2022-11-28T05:27:35.884Z,6.13
2022-11-28T05:30:04.073Z,6.00
2022-11-28T05:32:31.373Z,6.60
2022-11-28T05:34:58.811Z,5.75
2022-11-28T05:37:26.047Z,7.65
2022-11-28T05:39:52.942Z,7.82
2022-11-28T05:42:20.831Z,6.82
2022-11-28T05:44:50.881Z,7.37
2022-11-28T05:47:17.826Z,8.77
2022-11-28T05:49:46.929Z,9.65
2022-11-28T05:52:13.655Z,9.35
2022-11-28T05:54:40.647Z,7.28
2022-11-28T05:57:07.616Z,6.47
2022-11-28T05:59:35.055Z,6.90
2022-11-28T06:02:01.777Z,6.97
2022-11-28T06:04:28.827Z,6.20
2022-11-28T06:06:55.717Z,6.22
2022-11-28T06:09:25.834Z,6.50
2022-11-28T06:11:53.203Z,10.45
2022-11-28T06:14:20.171Z,10.05
2022-11-28T06:16:46.912Z,10.73
2022-11-28T06:19:13.984Z,11.20
2022-11-28T06:21:41.081Z,11.20
2022-11-28T06:24:09.612Z,11.68
2022-11-28T06:26:36.513Z,12.88
2022-11-28T06:29:03.485Z,12.25
2022-11-28T06:31:30.499Z,12.00
2022-11-28T06:33:58.438Z,10.70
2022-11-28T06:36:26.436Z,8.82
2022-11-28T06:38:54.298Z,8.63
2022-11-28T06:41:22.913Z,8.30
2022-11-28T06:43:50.155Z,8.38
2022-11-28T06:46:21.657Z,8.20
2022-11-28T06:48:50.782Z,9.25
2022-11-28T06:51:18.154Z,7.88
2022-11-28T06:53:45.139Z,13.05
2022-11-28T06:56:15.774Z,13.00
2022-11-28T06:58:44.059Z,12.67
2022-11-28T07:01:19.014Z,10.20
2022-11-28T07:03:46.870Z,8.15
2022-11-28T07:06:14.777Z,9.10
2022-11-28T07:08:42.438Z,8.35
2022-11-28T07:11:15.071Z,9.13
2022-11-28T07:13:43.120Z,10.98
2022-11-28T07:16:14.793Z,12.20
2022-11-28T07:18:42.286Z,9.65
2022-11-28T07:21:09.142Z,10.10
2022-11-28T07:23:37.147Z,10.33
2022-11-28T07:26:04.920Z,8.18
2022-11-28T07:28:32.549Z,9.23
2022-11-28T07:31:12.933Z,8.98
2022-11-28T07:33:41.407Z,8.80
2022-11-28T07:36:13.113Z,11.83
2022-11-28T07:38:40.363Z,11.50
2022-11-28T07:41:09.823Z,11.73
2022-11-28T07:43:38.012Z,13.27
2022-11-28T07:46:07.328Z,11.52
2022-11-28T07:48:35.600Z,14.20
2022-11-28T07:51:11.483Z,14.45
2022-11-28T07:53:39.649Z,13.55
2022-11-28T07:56:14.868Z,11.32
2022-11-28T07:58:45.028Z,10.00
2022-11-28T08:01:20.658Z,12.03
2022-11-28T08:03:47.980Z,10.45
2022-11-28T08:06:16.666Z,10.18
2022-11-28T08:08:43.989Z,10.80
2022-11-28T08:11:11.139Z,10.48
2022-11-28T08:13:39.724Z,14.73
2022-11-28T08:16:09.372Z,13.93
2022-11-28T08:18:36.681Z,14.13
2022-11-28T08:21:11.385Z,12.88
2022-11-28T08:23:39.445Z,15.00
2022-11-28T08:26:09.027Z,14.40
2022-11-28T08:28:36.664Z,16.05
2022-11-28T08:31:17.400Z,14.10
2022-11-28T08:33:46.413Z,13.80
2022-11-28T08:36:15.296Z,12.77
2022-11-28T08:38:53.444Z,11.63
2022-11-28T08:41:29.994Z,14.02
2022-11-28T08:43:56.899Z,12.65
2022-11-28T08:46:23.977Z,14.30
2022-11-28T08:48:52.677Z,14.35
2022-11-28T08:51:26.571Z,11.80
2022-11-28T08:53:59.095Z,10.85
2022-11-28T08:56:26.500Z,10.85
2022-11-28T08:58:53.468Z,10.48
2022-11-28T09:01:22.750Z,10.55
2022-11-28T09:03:50.839Z,10.77
2022-11-28T09:06:18.961Z,12.50
2022-11-28T09:08:46.572Z,14.13
2022-11-28T09:11:16.759Z,11.57
2022-11-28T09:13:44.539Z,12.23
2022-11-28T09:16:11.896Z,14.07
2022-11-28T09:18:39.090Z,13.80
2022-11-28T09:21:11.876Z,13.15
2022-11-28T09:23:41.052Z,14.88
2022-11-28T09:26:09.639Z,14.15
2022-11-28T09:28:36.834Z,15.73
2022-11-28T09:31:05.752Z,15.93
2022-11-28T09:33:33.111Z,16.58
2022-11-28T09:36:04.676Z,14.27
2022-11-28T09:38:31.611Z,14.18
2022-11-28T09:40:58.374Z,15.37
2022-11-28T09:43:44.052Z,14.40
2022-11-28T09:46:19.311Z,12.63
2022-11-28T09:48:51.064Z,12.77
2022-11-28T09:51:37.082Z,15.30
2022-11-28T09:54:48.658Z,13.93
2022-11-28T09:57:26.083Z,13.30
2022-11-28T09:59:53.043Z,12.25
2022-11-28T10:02:29.283Z,12.00
2022-11-28T10:05:02.239Z,13.70
2022-11-28T10:07:56.534Z,11.43
2022-11-28T10:10:38.533Z,11.00
2022-11-28T10:13:24.383Z,11.15
2022-11-28T10:15:55.169Z,13.15
2022-11-28T10:18:47.017Z,13.13
2022-11-28T10:21:39.125Z,15.37
2022-11-28T10:24:16.595Z,17.67
2022-11-28T10:26:48.554Z,19.67
2022-11-28T10:29:38.694Z,19.13
2022-11-28T10:32:06.244Z,18.00
2022-11-28T10:34:43.625Z,17.97
2022-11-28T10:37:21.444Z,15.10
2022-11-28T10:39:48.661Z,13.15
2022-11-28T10:42:28.359Z,14.70
2022-11-28T10:45:13.015Z,16.80
2022-11-28T10:48:38.368Z,14.97
2022-11-28T10:51:33.853Z,13.40
2022-11-28T10:54:42.974Z,12.20
2022-11-28T10:57:17.684Z,11.43
2022-11-28T11:00:12.295Z,12.10
2022-11-28T11:02:50.044Z,13.57
2022-11-28T11:05:24.300Z,17.15
2022-11-28T11:08:24.684Z,18.13
2022-11-28T11:10:53.003Z,16.75
2022-11-28T11:13:25.704Z,20.38
2022-11-28T11:16:03.087Z,19.37
2022-11-28T11:18:34.552Z,19.75
2022-11-28T11:21:22.850Z,16.83
2022-11-28T11:23:50.681Z,14.38
2022-11-28T11:26:28.797Z,13.48
2022-11-28T11:28:56.497Z,11.83
2022-11-28T11:31:27.804Z,10.80
2022-11-28T11:34:15.529Z,9.90
2022-11-28T11:36:42.547Z,10.02
2022-11-28T11:39:15.253Z,11.30
2022-11-28T11:41:50.661Z,9.83
2022-11-28T11:44:29.307Z,10.10
2022-11-28T11:46:57.742Z,9.82
2022-11-28T11:49:28.667Z,9.43
2022-11-28T11:52:02.213Z,10.73
2022-11-28T11:54:29.401Z,9.77
2022-11-28T11:57:24.992Z,11.32
2022-11-28T11:59:50.679Z,10.15
2022-11-28T12:02:32.453Z,10.23
2022-11-28T12:05:05.639Z,10.13
2022-11-28T12:08:10.845Z,9.43
2022-11-28T12:10:45.272Z,11.27
2022-11-28T12:13:19.290Z,11.70
2022-11-28T12:16:31.154Z,10.95
2022-11-28T12:19:12.909Z,10.48
2022-11-28T12:21:56.919Z,9.77
2022-11-28T12:24:40.472Z,11.00
2022-11-28T12:27:31.592Z,10.68
2022-11-28T12:30:29.946Z,9.80
2022-11-28T12:33:16.952Z,10.25
2022-11-28T12:36:03.138Z,11.63
2022-11-28T12:38:36.648Z,11.63
2022-11-28T12:41:12.253Z,11.80
2022-11-28T12:44:06.051Z,10.60
2022-11-28T12:46:40.172Z,17.88
2022-11-28T12:49:14.359Z,15.98
2022-11-28T12:51:53.278Z,15.10
2022-11-28T12:54:41.455Z,13.82
2022-11-28T12:57:17.921Z,13.30
2022-11-28T13:00:15.219Z,13.93
2022-11-28T13:02:57.405Z,18.00
2022-11-28T13:05:36.157Z,11.30
2022-11-28T13:08:27.642Z,9.88
2022-11-28T13:11:31.649Z,9.65
2022-11-28T13:14:05.159Z,13.85
2022-11-28T13:16:54.627Z,12.85
2022-11-28T13:19:42.408Z,12.00
2022-11-28T13:22:28.800Z,11.10
2022-11-28T13:25:22.585Z,13.02
2022-11-28T13:28:15.790Z,13.82
2022-11-28T13:30:48.473Z,12.10
2022-11-28T13:33:35.864Z,13.80
2022-11-28T13:36:04.128Z,15.93
2022-11-28T13:39:11.370Z,15.80
2022-11-28T13:45:02.860Z,12.80
2022-11-28T13:47:34.595Z,15.50
2022-11-28T13:50:23.080Z,15.98
2022-11-28T13:53:20.897Z,13.80
2022-11-28T13:55:51.149Z,11.68
2022-11-28T13:58:29.203Z,12.27
2022-11-28T14:01:12.272Z,12.60
2022-11-28T14:03:58.283Z,10.75
2022-11-28T14:06:42.071Z,11.70
2022-11-28T14:09:11.770Z,10.30
2022-11-28T14:11:49.699Z,12.20
2022-11-28T14:14:22.877Z,10.23
2022-11-28T14:17:35.915Z,10.73
2022-11-28T14:20:20.511Z,10.20
2022-11-28T14:23:25.717Z,9.80
2022-11-28T14:25:54.667Z,10.13
2022-11-28T14:28:30.501Z,9.50
2022-11-28T14:31:18.078Z,9.85
2022-11-28T14:33:46.308Z,10.55
2022-11-28T14:36:33.921Z,9.80
2022-11-28T14:39:16.307Z,13.50
2022-11-28T14:42:36.736Z,11.53
2022-11-28T14:45:38.396Z,11.23
2022-11-28T14:48:16.586Z,10.70
2022-11-28T14:50:59.077Z,10.50
2022-11-28T14:53:44.952Z,9.90
2022-11-28T14:56:15.394Z,9.30
2022-11-28T14:58:55.649Z,9.55
2022-11-28T15:01:49.292Z,9.20
2022-11-28T15:04:53.464Z,8.10
2022-11-28T15:07:20.512Z,8.73
2022-11-28T15:10:07.556Z,9.30
2022-11-28T15:13:03.239Z,8.65
2022-11-28T15:15:31.959Z,9.32
2022-11-28T15:18:03.000Z,8.52
2022-11-28T15:20:42.573Z,7.45
2022-11-28T15:23:34.040Z,7.90
2022-11-28T15:26:02.264Z,7.65
2022-11-28T15:28:32.427Z,8.15
2022-11-28T15:31:01.621Z,8.15
2022-11-28T15:33:29.755Z,8.15
2022-11-28T15:35:59.758Z,11.30
2022-11-28T15:38:28.534Z,10.00
2022-11-28T15:40:56.650Z,8.82
2022-11-28T15:43:24.768Z,7.50
2022-11-28T15:45:58.493Z,8.27
2022-11-28T15:48:49.446Z,7.88
2022-11-28T15:51:23.869Z,7.57
2022-11-28T15:53:50.850Z,8.80
2022-11-28T15:56:17.560Z,7.93
2022-11-28T15:58:47.768Z,8.60
2022-11-28T16:01:14.863Z,7.75
2022-11-28T16:03:54.808Z,9.13
2022-11-28T16:06:24.847Z,9.48
2022-11-28T16:08:59.015Z,9.13
2022-11-28T16:11:28.560Z,9.02
2022-11-28T16:13:58.369Z,14.18
2022-11-28T16:16:29.098Z,11.70
2022-11-28T16:18:58.628Z,10.63
2022-11-28T16:21:29.965Z,11.43
2022-11-28T16:23:56.962Z,14.07
2022-11-28T16:26:35.680Z,11.88
2022-11-28T16:29:05.667Z,11.50
2022-11-28T16:31:33.801Z,11.30
2022-11-28T16:34:02.724Z,9.77
2022-11-28T16:36:36.901Z,8.18
2022-11-28T16:39:16.907Z,8.70
2022-11-28T16:41:52.042Z,8.27
2022-11-28T16:44:22.198Z,8.13
2022-11-28T16:46:57.150Z,7.35
2022-11-28T16:49:42.413Z,7.70
2022-11-28T16:52:21.288Z,7.80
2022-11-28T16:54:49.747Z,7.57
2022-11-28T16:57:17.168Z,7.70
2022-11-28T16:59:45.077Z,7.85
2022-11-28T17:02:14.875Z,7.85
2022-11-28T17:04:42.080Z,7.75
2022-11-28T17:07:13.740Z,8.17
2022-11-28T17:09:46.545Z,8.25
2022-11-28T17:12:29.723Z,8.48
2022-11-28T17:14:58.318Z,8.68
2022-11-28T17:17:25.284Z,8.63
2022-11-28T17:19:52.212Z,9.00
2022-11-28T17:22:21.786Z,9.25
2022-11-28T17:24:50.014Z,9.32
2022-11-28T17:27:16.920Z,10.25
2022-11-28T17:29:44.232Z,12.77
2022-11-28T17:32:13.492Z,11.67
2022-11-28T17:34:42.038Z,11.52
2022-11-28T17:37:09.503Z,11.60
2022-11-28T17:39:36.472Z,12.02
2022-11-28T17:42:03.971Z,11.18
2022-11-28T17:44:34.046Z,11.57
2022-11-28T17:47:02.240Z,10.65
2022-11-28T17:49:30.794Z,10.32
2022-11-28T17:51:58.433Z,12.02
2022-11-28T17:54:26.853Z,14.13
2022-11-28T17:56:54.371Z,10.87
2022-11-28T17:59:23.220Z,11.07
2022-11-28T18:01:50.649Z,11.88
2022-11-28T18:04:23.475Z,12.13
2022-11-28T18:06:50.188Z,12.93
2022-11-28T18:09:17.366Z,14.97
2022-11-28T18:11:46.793Z,17.50
2022-11-28T18:14:14.063Z,15.77
2022-11-28T18:16:43.770Z,14.10
2022-11-28T18:19:11.242Z,13.40
2022-11-28T18:21:38.868Z,13.10
2022-11-28T18:24:06.137Z,12.95
2022-11-28T18:26:32.986Z,13.23
2022-11-28T18:29:00.050Z,13.27
2022-11-28T18:31:29.273Z,12.50
2022-11-28T18:34:02.041Z,11.73
2022-11-28T18:36:33.364Z,12.15
2022-11-28T18:39:03.100Z,11.45
2022-11-28T18:41:30.662Z,11.65
2022-11-28T18:43:59.370Z,11.40
2022-11-28T18:46:28.343Z,12.63
2022-11-28T18:48:55.983Z,11.77
2022-11-28T18:51:30.382Z,12.77
2022-11-28T18:53:58.225Z,11.20
2022-11-28T18:56:26.282Z,10.43
2022-11-28T18:58:54.603Z,11.07
2022-11-28T19:01:28.598Z,12.10
2022-11-28T19:03:58.547Z,11.15
2022-11-28T19:06:25.766Z,10.75
2022-11-28T19:08:54.832Z,10.57
2022-11-28T19:11:23.114Z,8.67
2022-11-28T19:13:52.793Z,8.85
2022-11-28T19:16:26.181Z,7.88
2022-11-28T19:18:53.427Z,9.98
2022-11-28T19:21:24.011Z,11.38
2022-11-28T19:23:52.030Z,9.70
2022-11-28T19:26:22.443Z,9.98
2022-11-28T19:28:50.547Z,9.32
2022-11-28T19:31:21.042Z,9.60
2022-11-28T19:34:06.476Z,11.13
2022-11-28T19:36:37.540Z,11.00
2022-11-28T19:39:05.160Z,15.25
2022-11-28T19:41:33.775Z,15.20
2022-11-28T19:44:01.322Z,19.52
2022-11-28T19:46:35.029Z,17.50
2022-11-28T19:49:04.790Z,15.90
2022-11-28T19:51:31.683Z,16.98
2022-11-28T19:54:03.635Z,13.50
2022-11-28T19:56:32.456Z,11.93
2022-11-28T19:59:00.160Z,10.80
2022-11-28T20:01:28.664Z,9.93
2022-11-28T20:03:55.720Z,9.68
2022-11-28T20:06:28.243Z,10.30
2022-11-28T20:08:59.000Z,9.18
2022-11-28T20:11:29.343Z,11.07
2022-11-28T20:13:58.376Z,12.03
2022-11-28T20:16:25.936Z,18.00
2022-11-28T20:18:53.704Z,17.73
2022-11-28T20:21:21.369Z,16.55
2022-11-28T20:23:50.780Z,12.57
2022-11-28T20:26:19.714Z,10.80
2022-11-28T20:28:47.550Z,9.95
2022-11-28T20:31:25.293Z,9.32
2022-11-28T20:33:54.008Z,8.40
2022-11-28T20:36:25.598Z,8.98
2022-11-28T20:38:54.351Z,8.27
2022-11-28T20:41:22.551Z,7.55
2022-11-28T20:43:51.104Z,9.57
2022-11-28T20:46:21.576Z,9.48
2022-11-28T20:48:49.548Z,11.15
2022-11-28T20:51:22.232Z,9.20
2022-11-28T20:53:49.244Z,12.25
2022-11-28T20:56:19.479Z,11.75
2022-11-28T20:58:47.243Z,10.60
2022-11-28T21:01:16.373Z,10.20
2022-11-28T21:03:44.139Z,9.77
2022-11-28T21:06:12.780Z,9.05
2022-11-28T21:08:40.744Z,9.60
2022-11-28T21:11:25.299Z,10.18
2022-11-28T21:13:59.608Z,9.95
2022-11-28T21:16:29.682Z,9.17
2022-11-28T21:18:58.464Z,9.13
2022-11-28T21:21:28.187Z,9.88
2022-11-28T21:24:04.036Z,9.77
2022-11-28T21:26:40.511Z,10.32
2022-11-28T21:29:11.299Z,8.43
2022-11-28T21:31:42.167Z,8.80
2022-11-28T21:34:14.781Z,12.27
2022-11-28T21:36:42.025Z,14.18
2022-11-28T21:39:13.490Z,14.40
2022-11-28T21:41:40.384Z,12.00
2022-11-28T21:44:07.846Z,11.48
2022-11-28T21:46:34.686Z,10.43
2022-11-28T21:49:02.001Z,10.73
2022-11-28T21:51:29.012Z,10.13
2022-11-28T21:54:00.207Z,9.90
2022-11-28T21:56:27.107Z,8.80
2022-11-28T21:58:54.259Z,10.52
2022-11-28T22:01:21.346Z,10.40
2022-11-28T22:03:49.196Z,10.32
2022-11-28T22:06:20.232Z,10.70
2022-11-28T22:08:49.073Z,11.63
2022-11-28T22:11:16.459Z,9.73
2022-11-28T22:13:47.589Z,10.50
2022-11-28T22:16:16.142Z,10.98
2022-11-28T22:18:46.771Z,10.53
2022-11-28T22:21:49.881Z,10.45
2022-11-28T22:24:03.632Z,10.30
2022-11-28T22:26:30.470Z,11.73
2022-11-28T22:28:58.944Z,12.52
2022-11-28T22:31:25.908Z,12.03
2022-11-28T22:33:53.119Z,12.30
2022-11-28T22:36:21.196Z,11.70
2022-11-28T22:38:53.529Z,11.90
2022-11-28T22:41:28.387Z,12.40
2022-11-28T22:44:00.724Z,12.57
2022-11-28T22:46:28.597Z,11.52
2022-11-28T22:48:56.502Z,11.13
2022-11-28T22:51:25.557Z,12.45
2022-11-28T22:53:58.956Z,12.02
2022-11-28T22:56:28.328Z,11.30
2022-11-28T22:58:55.592Z,12.38
2022-11-28T23:01:29.650Z,12.68
2022-11-28T23:03:57.415Z,12.55
2022-11-28T23:06:27.201Z,13.25
2022-11-28T23:08:56.875Z,13.40
2022-11-28T23:11:28.487Z,12.18
2022-11-28T23:13:55.697Z,12.75
2022-11-28T23:16:25.957Z,13.57
2022-11-28T23:18:59.741Z,12.02
2022-11-28T23:21:30.641Z,15.93
2022-11-28T23:23:58.176Z,14.10
2022-11-28T23:26:29.560Z,12.25
2022-11-28T23:28:58.876Z,10.50
2022-11-28T23:31:30.332Z,10.60
2022-11-28T23:33:58.090Z,10.27
2022-11-28T23:36:25.816Z,10.65
2022-11-28T23:39:02.240Z,10.23
2022-11-28T23:41:30.124Z,11.10
2022-11-28T23:43:58.076Z,10.98
2022-11-28T23:46:25.542Z,10.17
2022-11-28T23:48:52.610Z,14.73
2022-11-28T23:51:21.393Z,12.25
2022-11-28T23:53:48.444Z,11.93
2022-11-28T23:56:20.147Z,11.68
2022-11-28T23:58:47.436Z,9.97
